< < Back
Terminal Aerodrome Forecast


Current Version              Previous Versions:   1  2  3  4  5  6  7  8  9  

Terminal Aerodrome Forecast

860
FTUS42 KTAE 290200 AAC
TAFTLH
TAF AMD
KTLH 290201Z 2902/2924 26005KT P6SM -TSRA OVC019CB
     FM290300 32006KT P6SM SCT030 BKN100
     FM291200 34008KT P6SM SCT120
     FM291700 31011KT P6SM SKC=

Latest METAR

987
SAUS80 KWBC 290400
MTRTLH
METAR KTLH 290353Z COR 25005KT 10SM BKN250 24/23 A2994 RMK AO2 SLPNO
LAST AUGMENTED OBS T02360234 $


USA.gov is the U.S. government's official web portal to all federal, state and local government web resources and services.